createdAt,value
2022-11-05T00:00:37.793Z,97233.88
2022-11-05T00:03:23.975Z,97231.44
2022-11-05T00:06:12.635Z,97241.84
2022-11-05T00:09:00.377Z,97247.13
2022-11-05T00:11:46.577Z,97248.84
2022-11-05T00:14:52.624Z,97249.00
2022-11-05T00:17:20.157Z,97249.56
2022-11-05T00:19:47.582Z,97255.66
2022-11-05T00:22:33.713Z,97252.00
2022-11-05T00:25:19.152Z,97253.25
2022-11-05T00:27:52.459Z,97259.22
2022-11-05T00:30:23.471Z,97257.00
2022-11-05T00:32:52.225Z,97257.75
2022-11-05T00:35:21.739Z,97267.31
2022-11-05T00:37:50.603Z,97262.00
2022-11-05T00:40:18.345Z,97265.63
2022-11-05T00:43:04.434Z,97269.31
2022-11-05T00:45:32.249Z,97268.13
2022-11-05T00:48:18.134Z,97275.63
2022-11-05T00:50:46.158Z,97279.69
2022-11-05T00:53:13.988Z,97272.53
2022-11-05T00:55:43.794Z,97278.53
2022-11-05T00:58:12.452Z,97278.75
2022-11-05T01:00:45.241Z,97280.94
2022-11-05T01:03:15.508Z,97279.94
2022-11-05T01:05:55.174Z,97291.56
2022-11-05T01:08:25.058Z,97284.78
2022-11-05T01:10:55.633Z,97285.16
2022-11-05T01:13:26.359Z,97282.00
2022-11-05T01:15:55.302Z,97290.75
2022-11-05T01:18:24.387Z,97292.97
2022-11-05T01:20:51.932Z,97292.00
2022-11-05T01:23:19.869Z,97298.25
2022-11-05T01:25:47.719Z,97299.88
2022-11-05T01:28:15.241Z,97303.38
2022-11-05T01:30:42.862Z,97316.41
2022-11-05T01:33:10.706Z,97315.00
2022-11-05T01:35:39.403Z,97326.41
2022-11-05T01:38:06.873Z,97329.91
2022-11-05T01:40:34.360Z,97324.59
2022-11-05T01:43:01.953Z,97333.13
2022-11-05T01:45:29.613Z,97337.53
2022-11-05T01:48:30.733Z,97337.41
2022-11-05T01:51:11.973Z,97342.34
2022-11-05T01:54:08.293Z,97347.19
2022-11-05T01:56:43.628Z,97352.75
2022-11-05T01:59:20.482Z,97354.78
2022-11-05T02:01:48.387Z,97351.94
2022-11-05T02:04:25.405Z,97343.38
2022-11-05T02:06:53.265Z,97341.44
2022-11-05T02:09:20.711Z,97345.38
2022-11-05T02:11:49.873Z,97346.19
2022-11-05T02:14:18.466Z,97351.50
2022-11-05T02:16:54.892Z,97355.41
2022-11-05T02:19:50.186Z,97360.91
2022-11-05T02:22:35.645Z,97353.19
2022-11-05T02:25:24.499Z,97353.41
2022-11-05T02:28:29.399Z,97359.59
2022-11-05T02:31:37.253Z,97365.28
2022-11-05T02:34:10.686Z,97371.97
2022-11-05T02:36:45.982Z,97375.66
2022-11-05T02:39:33.391Z,97385.69
2022-11-05T02:42:05.194Z,97384.06
2022-11-05T02:44:47.103Z,97383.84
2022-11-05T02:47:51.070Z,97372.41
2022-11-05T02:50:37.986Z,97377.50
2022-11-05T02:53:12.213Z,97384.31
2022-11-05T02:56:09.635Z,97393.28
2022-11-05T02:58:37.272Z,97383.47
2022-11-05T03:01:07.165Z,97394.47
2022-11-05T03:03:51.074Z,97395.63
2022-11-05T03:06:51.034Z,97402.19
2022-11-05T03:09:30.394Z,97397.13
2022-11-05T03:12:19.648Z,97407.94
2022-11-05T03:15:01.592Z,97418.34
2022-11-05T03:17:58.784Z,97416.50
2022-11-05T03:20:36.881Z,97417.50
2022-11-05T03:23:22.935Z,97421.38
2022-11-05T03:25:58.625Z,97416.88
2022-11-05T03:28:30.299Z,97424.16
2022-11-05T03:30:58.582Z,97425.44
2022-11-05T03:33:30.175Z,97428.09
2022-11-05T03:36:03.701Z,97425.78
2022-11-05T03:38:38.774Z,97434.56
2022-11-05T03:41:11.102Z,97432.72
2022-11-05T03:43:43.092Z,97432.34
2022-11-05T03:46:45.452Z,97434.78
2022-11-05T03:49:19.472Z,97432.78
2022-11-05T03:51:54.500Z,97438.91
2022-11-05T03:54:22.663Z,97440.06
2022-11-05T03:56:50.028Z,97439.88
2022-11-05T03:59:18.863Z,97440.06
2022-11-05T04:01:47.866Z,97450.13
2022-11-05T04:04:15.718Z,97450.13
2022-11-05T04:07:01.978Z,97447.47
2022-11-05T04:09:48.372Z,97454.19
2022-11-05T04:12:34.426Z,97457.03
2022-11-05T04:15:02.059Z,97466.84
2022-11-05T04:17:29.531Z,97476.44
2022-11-05T04:20:15.470Z,97475.63
2022-11-05T04:23:01.373Z,97476.06
2022-11-05T04:25:28.913Z,97479.53
2022-11-05T04:28:00.630Z,97495.44
2022-11-05T04:30:28.152Z,97495.38
2022-11-05T04:32:58.322Z,97499.66
2022-11-05T04:35:27.141Z,97500.25
2022-11-05T04:37:54.671Z,97495.38
2022-11-05T04:40:22.164Z,97500.53
2022-11-05T04:42:49.605Z,97500.91
2022-11-05T04:45:17.201Z,97504.16
2022-11-05T04:47:44.708Z,97502.47
2022-11-05T04:50:13.322Z,97505.34
2022-11-05T04:52:41.292Z,97510.84
2022-11-05T04:55:09.013Z,97514.91
2022-11-05T04:57:36.831Z,97517.56
2022-11-05T05:00:06.664Z,97522.31
2022-11-05T05:02:35.291Z,97527.63
2022-11-05T05:05:03.346Z,97525.53
2022-11-05T05:07:30.789Z,97531.88
2022-11-05T05:09:58.288Z,97527.75
2022-11-05T05:12:25.688Z,97539.19
2022-11-05T05:14:53.223Z,97544.56
2022-11-05T05:17:20.714Z,97539.63
2022-11-05T05:20:06.801Z,97550.47
2022-11-05T05:22:34.391Z,97556.38
2022-11-05T05:25:01.984Z,97554.53
2022-11-05T05:27:29.762Z,97553.88
2022-11-05T05:29:58.447Z,97562.63
2022-11-05T05:32:27.172Z,97562.13
2022-11-05T05:34:54.624Z,97554.75
2022-11-05T05:37:22.231Z,97552.75
2022-11-05T05:39:49.943Z,97568.25
2022-11-05T05:42:17.469Z,97567.56
2022-11-05T05:44:44.930Z,97562.94
2022-11-05T05:47:13.802Z,97567.56
2022-11-05T05:49:41.273Z,97569.41
2022-11-05T05:52:08.738Z,97570.47
2022-11-05T05:54:42.307Z,97575.75
2022-11-05T05:57:10.613Z,97578.00
2022-11-05T05:59:38.153Z,97581.66
2022-11-05T06:02:05.703Z,97580.03
2022-11-05T06:04:33.253Z,97574.34
2022-11-05T06:07:00.732Z,97578.19
2022-11-05T06:09:28.213Z,97571.31
2022-11-05T06:11:55.719Z,97572.78
2022-11-05T06:14:23.343Z,97577.88
2022-11-05T06:16:50.748Z,97589.53
2022-11-05T06:19:18.313Z,97595.66
2022-11-05T06:21:45.722Z,97602.13
2022-11-05T06:24:13.293Z,97604.63
2022-11-05T06:26:43.362Z,97613.63
2022-11-05T06:29:10.884Z,97626.69
2022-11-05T06:31:38.388Z,97632.56
2022-11-05T06:34:05.848Z,97634.00
2022-11-05T06:36:33.667Z,97638.31
2022-11-05T06:39:01.135Z,97642.19
2022-11-05T06:41:28.562Z,97648.28
2022-11-05T06:43:56.071Z,97653.59
2022-11-05T06:46:23.529Z,97650.72
2022-11-05T06:48:51.255Z,97643.38
2022-11-05T06:51:19.300Z,97659.06
2022-11-05T06:53:47.020Z,97654.78
2022-11-05T06:56:14.480Z,97652.75
2022-11-05T06:58:42.036Z,97653.94
2022-11-05T07:01:10.813Z,97671.03
2022-11-05T07:03:38.901Z,97669.44
2022-11-05T07:06:07.479Z,97685.72
2022-11-05T07:08:36.490Z,97695.13
2022-11-05T07:11:05.080Z,97702.03
2022-11-05T07:13:32.538Z,97692.47
2022-11-05T07:16:00.069Z,97696.34
2022-11-05T07:18:27.612Z,97708.56
2022-11-05T07:20:55.022Z,97710.78
2022-11-05T07:23:22.631Z,97716.31
2022-11-05T07:25:50.019Z,97712.78
2022-11-05T07:28:17.570Z,97723.22
2022-11-05T07:30:45.304Z,97726.03
2022-11-05T07:33:13.449Z,97729.69
2022-11-05T07:35:41.291Z,97732.31
2022-11-05T07:38:08.907Z,97734.97
2022-11-05T07:40:36.431Z,97733.56
2022-11-05T07:43:03.961Z,97740.06
2022-11-05T07:45:32.342Z,97743.53
2022-11-05T07:48:04.709Z,97746.00
2022-11-05T07:50:36.984Z,97752.09
2022-11-05T07:53:10.856Z,97747.13
2022-11-05T07:55:40.758Z,97750.94
2022-11-05T07:58:09.258Z,97753.72
2022-11-05T08:00:37.020Z,97753.72
2022-11-05T08:03:13.792Z,97766.00
2022-11-05T08:05:44.759Z,97769.25
2022-11-05T08:08:14.871Z,97769.97
2022-11-05T08:10:42.992Z,97770.28
2022-11-05T08:13:11.371Z,97767.38
2022-11-05T08:15:39.491Z,97774.16
2022-11-05T08:18:16.753Z,97788.41
2022-11-05T08:20:45.591Z,97785.31
2022-11-05T08:23:13.440Z,97784.94
2022-11-05T08:25:42.151Z,97782.94
2022-11-05T08:28:13.061Z,97787.81
2022-11-05T08:30:41.552Z,97796.78
2022-11-05T08:33:11.542Z,97792.81
2022-11-05T08:35:40.217Z,97800.78
2022-11-05T08:38:10.075Z,97805.34
2022-11-05T08:40:37.682Z,97809.59
2022-11-05T08:43:07.327Z,97813.13
2022-11-05T08:45:38.338Z,97809.00
2022-11-05T08:48:09.212Z,97816.72
2022-11-05T08:50:38.205Z,97811.59
2022-11-05T08:53:05.852Z,97818.75
2022-11-05T08:55:33.859Z,97821.19
2022-11-05T08:58:04.254Z,97814.13
2022-11-05T09:00:35.031Z,97815.09
2022-11-05T09:03:04.712Z,97823.31
2022-11-05T09:05:37.898Z,97821.06
2022-11-05T09:08:06.313Z,97818.25
2022-11-05T09:10:34.019Z,97829.31
2022-11-05T09:13:01.678Z,97834.22
2022-11-05T09:15:29.486Z,97839.25
2022-11-05T09:17:57.119Z,97836.31
2022-11-05T09:20:24.827Z,97830.94
2022-11-05T09:22:52.639Z,97835.31
2022-11-05T09:25:20.144Z,97827.94
2022-11-05T09:27:47.690Z,97831.84
2022-11-05T09:30:15.330Z,97829.75
2022-11-05T09:32:42.820Z,97834.38
2022-11-05T09:35:10.641Z,97837.25
2022-11-05T09:37:38.701Z,97829.13
2022-11-05T09:40:07.297Z,97840.84
2022-11-05T09:42:46.852Z,97832.66
2022-11-05T09:45:18.578Z,97829.59
2022-11-05T09:47:52.417Z,97828.69
2022-11-05T09:50:30.866Z,97831.91
2022-11-05T09:52:58.597Z,97838.66
2022-11-05T09:55:51.581Z,97838.34
2022-11-05T09:58:43.763Z,97842.06
2022-11-05T10:01:16.112Z,97835.56
2022-11-05T10:03:49.887Z,97836.38
2022-11-05T10:06:24.411Z,97843.69
2022-11-05T10:09:02.910Z,97837.19
2022-11-05T10:11:42.102Z,97849.72
2022-11-05T10:14:19.889Z,97852.59
2022-11-05T10:16:59.302Z,97853.88
2022-11-05T10:19:37.462Z,97848.41
2022-11-05T10:22:17.008Z,97858.53
2022-11-05T10:24:47.833Z,97863.28
2022-11-05T10:27:25.161Z,97861.91
2022-11-05T10:29:53.177Z,97863.53
2022-11-05T10:32:29.135Z,97869.44
2022-11-05T10:35:00.182Z,97867.16
2022-11-05T10:37:29.000Z,97868.28
2022-11-05T10:39:56.648Z,97875.38
2022-11-05T10:42:27.072Z,97876.53
2022-11-05T10:45:22.939Z,97875.72
2022-11-05T10:48:49.488Z,97888.09
2022-11-05T10:51:17.573Z,97885.19
2022-11-05T10:54:02.418Z,97890.53
2022-11-05T10:56:41.030Z,97888.25
2022-11-05T10:59:30.191Z,97877.31
2022-11-05T11:02:23.354Z,97871.69
2022-11-05T11:04:56.321Z,97870.88
2022-11-05T11:07:26.084Z,97870.97
2022-11-05T11:09:54.114Z,97889.09
2022-11-05T11:12:27.914Z,97881.97
2022-11-05T11:15:01.431Z,97878.50
2022-11-05T11:17:31.382Z,97880.22
2022-11-05T11:20:23.724Z,97879.78
2022-11-05T11:23:01.663Z,97885.50
2022-11-05T11:25:38.860Z,97882.38
2022-11-05T11:28:13.041Z,97878.56
2022-11-05T11:30:48.240Z,97886.09
2022-11-05T11:33:21.502Z,97881.88
2022-11-05T11:35:49.049Z,97873.53
2022-11-05T11:38:17.658Z,97884.09
2022-11-05T11:40:45.678Z,97887.69
2022-11-05T11:43:23.872Z,97890.75
2022-11-05T11:45:54.909Z,97891.34
2022-11-05T11:48:29.778Z,97896.72
2022-11-05T11:50:58.923Z,97899.63
2022-11-05T11:53:34.628Z,97892.19
2022-11-05T11:56:12.571Z,97895.56
2022-11-05T12:03:02.499Z,97892.38
2022-11-05T12:06:08.941Z,97886.34
2022-11-05T12:08:57.334Z,97893.28
2022-11-05T12:11:42.037Z,97877.09
2022-11-05T12:14:28.567Z,97884.28
2022-11-05T12:17:21.852Z,97883.63
2022-11-05T12:20:00.474Z,97884.97
2022-11-05T12:22:46.387Z,97886.53
2022-11-05T12:25:18.857Z,97905.06
2022-11-05T12:28:04.277Z,97894.50
2022-11-05T12:30:57.852Z,97897.72
2022-11-05T12:33:48.556Z,97896.84
2022-11-05T12:36:47.267Z,97903.97
2022-11-05T12:39:32.854Z,97902.59
2022-11-05T12:42:03.147Z,97905.25
2022-11-05T12:44:48.975Z,97900.16
2022-11-05T12:47:49.633Z,97900.53
2022-11-05T12:50:55.696Z,97910.38
2022-11-05T12:53:29.352Z,97909.13
2022-11-05T12:55:59.855Z,97916.88
2022-11-05T12:58:44.532Z,97911.34
2022-11-05T13:01:23.366Z,97920.94
2022-11-05T13:04:07.088Z,97920.50
2022-11-05T13:06:46.098Z,97919.53
2022-11-05T13:09:23.786Z,97927.81
2022-11-05T13:12:06.206Z,97926.09
2022-11-05T13:14:44.298Z,97926.59
2022-11-05T13:17:16.902Z,97928.22
2022-11-05T13:20:01.691Z,97932.41
2022-11-05T13:22:52.683Z,97924.19
2022-11-05T13:25:24.188Z,97925.84
2022-11-05T13:28:12.662Z,97926.56
2022-11-05T13:30:46.427Z,97929.56
2022-11-05T13:33:19.686Z,97920.06
2022-11-05T13:35:47.181Z,97922.72
2022-11-05T13:38:44.645Z,97928.53
2022-11-05T13:41:42.807Z,97926.78
2022-11-05T13:44:34.334Z,97932.72
2022-11-05T13:47:01.858Z,97934.91
2022-11-05T13:49:56.255Z,97936.78
2022-11-05T13:52:23.726Z,97937.69
2022-11-05T13:55:03.236Z,97940.47
2022-11-05T13:58:26.465Z,97943.41
2022-11-05T14:01:15.730Z,97948.03
2022-11-05T14:03:51.716Z,97947.91
2022-11-05T14:06:29.976Z,97957.78
2022-11-05T14:09:03.601Z,97956.97
2022-11-05T14:11:34.863Z,97963.13
2022-11-05T14:14:07.141Z,97953.47
2022-11-05T14:17:06.981Z,97961.00
2022-11-05T14:19:52.371Z,97960.59
2022-11-05T14:22:37.835Z,97961.88
2022-11-05T14:25:17.388Z,97955.38
2022-11-05T14:27:47.875Z,97964.69
2022-11-05T14:30:47.222Z,97975.50
2022-11-05T14:33:16.249Z,97974.25
2022-11-05T14:35:43.774Z,97981.19
2022-11-05T14:38:28.012Z,97975.94
2022-11-05T14:40:59.221Z,97974.16
2022-11-05T14:43:29.250Z,97983.19
2022-11-05T14:46:09.206Z,97982.06
2022-11-05T14:48:58.535Z,97986.31
2022-11-05T14:51:35.851Z,97982.22
2022-11-05T14:54:08.324Z,97986.50
2022-11-05T14:56:57.841Z,97993.78
2022-11-05T14:59:25.211Z,97994.22
2022-11-05T15:02:17.687Z,97991.19
2022-11-05T15:04:49.441Z,97999.44
2022-11-05T15:07:23.420Z,98001.78
2022-11-05T15:09:59.177Z,98001.41
2022-11-05T15:12:46.832Z,98009.69
2022-11-05T15:15:24.029Z,98004.25
2022-11-05T15:18:15.577Z,98007.38
2022-11-05T15:20:47.416Z,98011.59
2022-11-05T15:23:18.181Z,98012.31
2022-11-05T15:25:53.605Z,98010.19
2022-11-05T15:28:40.218Z,98005.75
2022-11-05T15:31:13.442Z,98009.06
2022-11-05T15:33:42.678Z,98008.25
2022-11-05T15:36:31.430Z,98008.91
2022-11-05T15:39:27.835Z,98019.75
2022-11-05T15:41:47.255Z,98026.56
2022-11-05T15:44:26.225Z,98026.38
2022-11-05T15:47:18.667Z,98023.34
2022-11-05T15:49:52.100Z,98026.84
2022-11-05T15:52:25.852Z,98023.34
2022-11-05T15:55:12.098Z,98028.88
2022-11-05T15:58:03.261Z,98038.25
2022-11-05T16:00:34.117Z,98038.06
2022-11-05T16:03:08.825Z,98032.56
2022-11-05T16:05:43.546Z,98036.63
2022-11-05T16:08:21.328Z,98037.44
2022-11-05T16:10:52.078Z,98037.63
2022-11-05T16:13:34.282Z,98045.59
2022-11-05T16:16:21.528Z,98044.56
2022-11-05T16:18:49.081Z,98049.84
2022-11-05T16:21:19.023Z,98050.25
2022-11-05T16:24:00.442Z,98053.47
2022-11-05T16:27:00.402Z,98054.69
2022-11-05T16:29:40.910Z,98058.34
2022-11-05T16:32:31.423Z,98056.50
2022-11-05T16:35:01.707Z,98053.44
2022-11-05T16:37:36.971Z,98057.69
2022-11-05T16:40:14.380Z,98055.44
2022-11-05T16:42:42.380Z,98055.44
2022-11-05T16:45:12.806Z,98062.97
2022-11-05T16:47:40.807Z,98065.78
2022-11-05T16:50:20.527Z,98067.63
2022-11-05T16:52:48.351Z,98064.16
2022-11-05T16:55:16.960Z,98060.25
2022-11-05T16:57:46.881Z,98059.66
2022-11-05T17:00:17.350Z,98062.69
2022-11-05T17:02:45.422Z,98063.09
2022-11-05T17:05:19.004Z,98068.38
2022-11-05T17:07:47.324Z,98066.94
2022-11-05T17:10:14.877Z,98080.38
2022-11-05T17:12:43.001Z,98071.63
2022-11-05T17:15:23.554Z,98078.97
2022-11-05T17:17:52.449Z,98075.47
2022-11-05T17:20:41.770Z,98077.50
2022-11-05T17:23:11.663Z,98078.72
2022-11-05T17:25:41.065Z,98085.22
2022-11-05T17:28:10.221Z,98085.59
2022-11-05T17:30:41.396Z,98083.78
2022-11-05T17:33:11.503Z,98087.63
2022-11-05T17:35:40.977Z,98083.34
2022-11-05T17:38:09.893Z,98095.94
2022-11-05T17:40:38.641Z,98095.53
2022-11-05T17:43:07.549Z,98095.75
2022-11-05T17:45:40.400Z,98096.13
2022-11-05T17:48:09.452Z,98095.84
2022-11-05T17:50:44.392Z,98101.91
2022-11-05T17:53:12.894Z,98109.03
2022-11-05T17:55:42.073Z,98115.16
2022-11-05T17:58:10.211Z,98120.81
2022-11-05T18:00:38.589Z,98117.53
2022-11-05T18:03:06.227Z,98119.59
2022-11-05T18:05:34.683Z,98122.22
2022-11-05T18:08:02.391Z,98127.91
2022-11-05T18:10:29.850Z,98120.34
2022-11-05T18:12:57.505Z,98136.63
2022-11-05T18:15:25.020Z,98134.34
2022-11-05T18:17:52.462Z,98136.75
2022-11-05T18:20:20.250Z,98141.78
2022-11-05T18:22:51.362Z,98145.00
2022-11-05T18:25:19.321Z,98143.13
2022-11-05T18:27:46.760Z,98152.25
2022-11-05T18:30:15.643Z,98144.69
2022-11-05T18:32:44.680Z,98147.88
2022-11-05T18:35:13.582Z,98153.81
2022-11-05T18:37:41.597Z,98144.25
2022-11-05T18:40:10.037Z,98149.91
2022-11-05T18:42:37.536Z,98146.00
2022-11-05T18:45:07.112Z,98151.28
2022-11-05T18:47:34.798Z,98147.22
2022-11-05T18:50:02.748Z,98150.19
2022-11-05T18:52:31.980Z,98153.41
2022-11-05T18:55:00.056Z,98155.06
2022-11-05T18:57:28.415Z,98159.25
2022-11-05T18:59:55.876Z,98146.88
2022-11-05T19:02:23.481Z,98156.00
2022-11-05T19:05:21.975Z,98157.34
2022-11-05T19:07:39.364Z,98158.38
2022-11-05T19:10:07.621Z,98160.38
2022-11-05T19:12:35.138Z,98154.91
2022-11-05T19:15:03.324Z,98163.38
2022-11-05T19:17:33.493Z,98155.47
2022-11-05T19:20:01.247Z,98158.31
2022-11-05T19:22:29.061Z,98158.47
2022-11-05T19:24:56.482Z,98159.31
2022-11-05T19:27:24.191Z,98157.28
2022-11-05T19:29:51.733Z,98163.75
2022-11-05T19:32:19.914Z,98168.44
2022-11-05T19:34:47.400Z,98166.16
2022-11-05T19:37:14.863Z,98164.72
2022-11-05T19:39:42.287Z,98153.31
2022-11-05T19:42:09.741Z,98155.97
2022-11-05T19:44:37.241Z,98166.78
2022-11-05T19:47:04.804Z,98162.88
2022-11-05T19:49:32.257Z,98161.25
2022-11-05T19:51:59.812Z,98162.44
2022-11-05T19:54:27.281Z,98164.06
2022-11-05T19:56:54.722Z,98174.84
2022-11-05T19:59:22.201Z,98165.09
2022-11-05T20:01:49.936Z,98175.81
2022-11-05T20:04:17.481Z,98176.03
2022-11-05T20:06:45.132Z,98177.41
2022-11-05T20:09:22.541Z,98181.41
2022-11-05T20:11:53.916Z,98181.22
2022-11-05T20:14:21.991Z,98189.53
2022-11-05T20:16:50.079Z,98184.25
2022-11-05T20:19:21.472Z,98184.84
2022-11-05T20:21:49.312Z,98185.88
2022-11-05T20:24:24.306Z,98183.22
2022-11-05T20:26:54.442Z,98188.88
2022-11-05T20:29:22.377Z,98191.53
2022-11-05T20:31:51.652Z,98191.72
2022-11-05T20:34:19.081Z,98187.63
2022-11-05T20:36:46.566Z,98186.44
2022-11-05T20:39:14.012Z,98198.81
2022-11-05T20:41:41.742Z,98191.88
2022-11-05T20:44:09.301Z,98199.81
2022-11-05T20:46:36.782Z,98202.44
2022-11-05T20:49:04.389Z,98203.47
2022-11-05T20:51:31.780Z,98207.09
2022-11-05T20:54:01.645Z,98205.47
2022-11-05T20:56:31.391Z,98210.38
2022-11-05T20:59:00.109Z,98205.47
2022-11-05T21:01:31.120Z,98204.81
2022-11-05T21:03:59.941Z,98206.19
2022-11-05T21:06:27.810Z,98213.31
2022-11-05T21:08:55.291Z,98214.13
2022-11-05T21:11:23.469Z,98205.38
2022-11-05T21:13:51.152Z,98209.47
2022-11-05T21:16:20.523Z,98204.00
2022-11-05T21:18:48.142Z,98207.66
2022-11-05T21:21:18.293Z,98197.53
2022-11-05T21:23:45.901Z,98197.09
2022-11-05T21:26:15.423Z,98192.44
2022-11-05T21:28:42.895Z,98192.63
2022-11-05T21:31:10.946Z,98190.78
2022-11-05T21:33:38.569Z,98196.06
2022-11-05T21:36:08.812Z,98197.91
2022-11-05T21:38:36.688Z,98199.09
2022-11-05T21:41:04.963Z,98200.91
2022-11-05T21:43:32.681Z,98199.44
2022-11-05T21:46:02.626Z,98199.66
2022-11-05T21:48:30.761Z,98192.53
2022-11-05T21:51:16.775Z,98197.81
2022-11-05T21:54:04.428Z,98199.66
2022-11-05T21:56:51.539Z,98205.53
2022-11-05T21:59:41.098Z,98201.91
2022-11-05T22:02:11.469Z,98198.81
2022-11-05T22:04:48.741Z,98203.47
2022-11-05T22:07:22.091Z,98206.03
2022-11-05T22:09:49.784Z,98204.72
2022-11-05T22:12:17.699Z,98203.91
2022-11-05T22:14:45.319Z,98204.28
2022-11-05T22:17:13.197Z,98207.47
2022-11-05T22:19:40.700Z,98206.47
2022-11-05T22:22:08.576Z,98203.81
2022-11-05T22:24:36.399Z,98207.47
2022-11-05T22:27:07.781Z,98198.53
2022-11-05T22:29:36.907Z,98194.88
2022-11-05T22:32:05.010Z,98201.47
2022-11-05T22:34:32.713Z,98197.16
2022-11-05T22:37:00.492Z,98195.53
2022-11-05T22:39:28.007Z,98194.72
2022-11-05T22:41:57.153Z,98198.53
2022-11-05T22:44:26.271Z,98194.44
2022-11-05T22:46:54.661Z,98192.34
2022-11-05T22:49:22.430Z,98195.97
2022-11-05T22:51:49.864Z,98200.28
2022-11-05T22:54:17.690Z,98198.63
2022-11-05T22:56:45.270Z,98201.09
2022-11-05T22:59:15.410Z,98194.44
2022-11-05T23:01:45.114Z,98188.13
2022-11-05T23:04:13.453Z,98190.97
2022-11-05T23:07:00.153Z,98192.59
2022-11-05T23:09:52.003Z,98188.13
2022-11-05T23:12:32.109Z,98181.44
2022-11-05T23:15:02.123Z,98185.25
2022-11-05T23:17:48.383Z,98189.50
2022-11-05T23:20:42.111Z,98185.88
2022-11-05T23:23:31.351Z,98187.69
2022-11-05T23:25:59.819Z,98195.59
2022-11-05T23:28:27.454Z,98196.06
2022-11-05T23:31:13.643Z,98202.34
2022-11-05T23:33:41.087Z,98199.19
2022-11-05T23:36:31.349Z,98202.72
2022-11-05T23:38:58.861Z,98207.19
2022-11-05T23:41:45.095Z,98205.00
2022-11-05T23:44:31.419Z,98202.81
2022-11-05T23:47:17.601Z,98202.81
2022-11-05T23:49:45.036Z,98191.88
2022-11-05T23:52:12.459Z,98187.06
2022-11-05T23:54:39.856Z,98187.88
2022-11-05T23:57:07.276Z,98191.16
2022-11-05T23:59:34.760Z,98191.34
